createdAt,value
2023-05-20T00:00:29.845Z,17.62
2023-05-20T00:01:30.005Z,17.60
2023-05-20T00:02:30.225Z,17.62
2023-05-20T00:03:30.439Z,17.61
2023-05-20T00:04:30.538Z,17.61
2023-05-20T00:05:30.699Z,17.61
2023-05-20T00:06:30.822Z,17.58
2023-05-20T00:07:31.003Z,17.58
2023-05-20T00:08:31.200Z,17.55
2023-05-20T00:09:31.364Z,17.55
2023-05-20T00:10:31.515Z,17.55
2023-05-20T00:11:31.701Z,17.55
2023-05-20T00:12:31.897Z,17.49
2023-05-20T00:13:32.041Z,17.55
2023-05-20T00:14:32.230Z,17.53
2023-05-20T00:15:32.730Z,17.57
2023-05-20T00:16:32.604Z,17.50
2023-05-20T00:17:32.768Z,17.53
2023-05-20T00:18:32.918Z,17.53
2023-05-20T00:19:33.076Z,17.49
2023-05-20T00:20:33.251Z,17.53
2023-05-20T00:21:33.432Z,17.52
2023-05-20T00:22:33.608Z,17.47
2023-05-20T00:23:33.806Z,17.46
2023-05-20T00:24:33.950Z,17.43
2023-05-20T00:25:34.285Z,17.45
2023-05-20T00:26:34.320Z,17.43
2023-05-20T00:27:34.513Z,17.43
2023-05-20T00:28:34.646Z,17.43
2023-05-20T00:29:34.815Z,17.42
2023-05-20T00:30:35.001Z,17.42
2023-05-20T00:31:35.227Z,17.42
2023-05-20T00:32:35.403Z,17.40
2023-05-20T00:33:35.528Z,17.39
2023-05-20T00:34:35.698Z,17.39
2023-05-20T00:35:36.118Z,17.40
2023-05-20T00:36:36.099Z,17.34
2023-05-20T00:37:36.243Z,17.35
2023-05-20T00:38:36.497Z,17.35
2023-05-20T00:39:36.574Z,17.31
2023-05-20T00:40:36.763Z,17.32
2023-05-20T00:41:36.930Z,17.30
2023-05-20T00:42:37.103Z,17.31
2023-05-20T00:43:37.296Z,17.31
2023-05-20T00:44:37.478Z,17.27
2023-05-20T00:45:37.729Z,17.32
2023-05-20T00:46:37.937Z,17.28
2023-05-20T00:47:38.023Z,17.27
2023-05-20T00:48:38.177Z,17.27
2023-05-20T00:49:38.346Z,17.25
2023-05-20T00:50:38.549Z,17.24
2023-05-20T00:51:38.706Z,17.27
2023-05-20T00:52:38.909Z,17.23
2023-05-20T00:53:39.058Z,17.24
2023-05-20T00:54:39.248Z,17.21
2023-05-20T00:55:39.388Z,17.17
2023-05-20T00:56:39.576Z,17.17
2023-05-20T00:57:39.735Z,17.15
2023-05-20T00:58:39.957Z,17.12
2023-05-20T00:59:41.007Z,17.13
2023-05-20T01:00:40.255Z,17.09
2023-05-20T01:01:40.504Z,17.07
2023-05-20T01:02:40.771Z,17.09
2023-05-20T01:03:40.930Z,17.05
2023-05-20T01:04:40.971Z,17.02
2023-05-20T01:05:42.362Z,17.05
2023-05-20T01:06:41.392Z,17.05
2023-05-20T01:07:41.516Z,17.01
2023-05-20T01:08:41.708Z,17.02
2023-05-20T01:09:41.862Z,17.01
2023-05-20T01:10:42.024Z,17.01
2023-05-20T01:11:42.216Z,17.02
2023-05-20T01:12:42.417Z,16.96
2023-05-20T01:13:42.541Z,16.96
2023-05-20T01:14:42.769Z,16.91
2023-05-20T01:15:42.906Z,16.93
2023-05-20T01:16:43.100Z,16.90
2023-05-20T01:17:43.269Z,16.90
2023-05-20T01:18:43.468Z,16.89
2023-05-20T01:19:43.590Z,16.89
2023-05-20T01:20:43.789Z,16.84
2023-05-20T01:21:43.958Z,16.86
2023-05-20T01:22:44.104Z,16.83
2023-05-20T01:23:44.280Z,16.82
2023-05-20T01:24:44.481Z,16.86
2023-05-20T01:25:44.685Z,16.79
2023-05-20T01:26:44.820Z,16.82
2023-05-20T01:27:44.977Z,16.79
2023-05-20T01:28:45.150Z,16.82
2023-05-20T01:29:45.336Z,16.79
2023-05-20T01:30:46.373Z,16.78
2023-05-20T01:31:45.865Z,16.78
2023-05-20T01:32:45.911Z,16.76
2023-05-20T01:33:46.060Z,16.75
2023-05-20T01:34:46.220Z,16.74
2023-05-20T01:35:46.430Z,16.75
2023-05-20T01:36:46.568Z,16.76
2023-05-20T01:37:46.748Z,16.74
2023-05-20T01:38:46.901Z,16.74
2023-05-20T01:39:47.066Z,16.71
2023-05-20T01:40:47.254Z,16.71
2023-05-20T01:41:47.425Z,16.72
2023-05-20T01:42:47.615Z,16.65
2023-05-20T01:43:47.779Z,16.71
2023-05-20T01:44:47.931Z,16.66
2023-05-20T01:45:48.126Z,16.68
2023-05-20T01:46:48.281Z,16.65
2023-05-20T01:47:48.529Z,16.65
2023-05-20T01:48:48.631Z,16.65
2023-05-20T01:49:48.761Z,16.64
2023-05-20T01:50:48.937Z,16.64
2023-05-20T01:51:49.119Z,16.59
2023-05-20T01:52:49.299Z,16.59
2023-05-20T01:53:49.498Z,16.60
2023-05-20T01:54:49.661Z,16.60
2023-05-20T01:55:49.829Z,16.57
2023-05-20T01:56:50.027Z,16.57
2023-05-20T01:57:50.206Z,16.59
2023-05-20T01:58:50.375Z,16.56
2023-05-20T01:59:50.510Z,16.50
2023-05-20T02:00:50.797Z,16.54
2023-05-20T02:01:50.960Z,16.51
2023-05-20T02:02:51.229Z,16.51
2023-05-20T02:03:51.205Z,16.51
2023-05-20T02:04:51.394Z,16.49
2023-05-20T02:05:51.603Z,16.50
2023-05-20T02:06:51.753Z,16.49
2023-05-20T02:07:51.885Z,16.49
2023-05-20T02:08:52.071Z,16.49
2023-05-20T02:09:52.254Z,16.46
2023-05-20T02:10:52.441Z,16.47
2023-05-20T02:11:52.591Z,16.42
2023-05-20T02:12:52.778Z,16.42
2023-05-20T02:13:52.950Z,16.44
2023-05-20T02:14:53.129Z,16.46
2023-05-20T02:15:53.280Z,16.42
2023-05-20T02:16:53.527Z,16.39
2023-05-20T02:17:53.646Z,16.41
2023-05-20T02:18:53.860Z,16.41
2023-05-20T02:19:54.059Z,16.39
2023-05-20T02:20:54.183Z,16.39
2023-05-20T02:21:54.316Z,16.35
2023-05-20T02:22:54.527Z,16.36
2023-05-20T02:23:54.707Z,16.36
2023-05-20T02:24:54.846Z,16.35
2023-05-20T02:25:55.030Z,16.39
2023-05-20T02:26:55.208Z,16.36
2023-05-20T02:27:55.389Z,16.36
2023-05-20T02:28:55.585Z,16.35
2023-05-20T02:29:55.766Z,16.36
2023-05-20T02:30:55.953Z,16.32
2023-05-20T02:31:56.119Z,16.35
2023-05-20T02:32:56.326Z,16.35
2023-05-20T02:33:56.462Z,16.34
2023-05-20T02:34:56.639Z,16.36
2023-05-20T02:35:56.819Z,16.34
2023-05-20T02:36:57.013Z,16.34
2023-05-20T02:37:57.123Z,16.34
2023-05-20T02:38:57.311Z,16.34
2023-05-20T02:39:57.500Z,16.35
2023-05-20T02:40:57.686Z,16.36
2023-05-20T02:41:57.825Z,16.35
2023-05-20T02:42:58.095Z,16.35
2023-05-20T02:43:58.195Z,16.35
2023-05-20T02:44:58.399Z,16.36
2023-05-20T02:45:58.579Z,16.38
2023-05-20T02:46:58.712Z,16.38
2023-05-20T02:47:58.901Z,16.36
2023-05-20T02:48:59.075Z,16.35
2023-05-20T02:49:59.253Z,16.41
2023-05-20T02:50:59.458Z,16.36
2023-05-20T02:51:59.612Z,16.39
2023-05-20T02:52:59.813Z,16.36
2023-05-20T02:53:59.970Z,16.39
2023-05-20T02:55:00.167Z,16.38
2023-05-20T02:56:00.342Z,16.41
2023-05-20T02:57:00.498Z,16.39
2023-05-20T02:58:00.709Z,16.41
2023-05-20T02:59:00.878Z,16.46
2023-05-20T03:00:01.044Z,16.42
2023-05-20T03:01:01.237Z,16.42
2023-05-20T03:02:01.404Z,16.46
2023-05-20T03:03:01.668Z,16.44
2023-05-20T03:04:01.775Z,16.42
2023-05-20T03:05:01.932Z,16.42
2023-05-20T03:06:02.106Z,16.47
2023-05-20T03:07:02.301Z,16.49
2023-05-20T03:08:02.491Z,16.49
2023-05-20T03:09:02.665Z,16.47
2023-05-20T03:10:02.833Z,16.49
2023-05-20T03:11:04.195Z,16.50
2023-05-20T03:12:03.162Z,16.50
2023-05-20T03:13:03.358Z,16.47
2023-05-20T03:14:03.542Z,16.51
2023-05-20T03:15:03.820Z,16.51
2023-05-20T03:16:03.933Z,16.53
2023-05-20T03:17:04.063Z,16.50
2023-05-20T03:18:04.268Z,16.53
2023-05-20T03:19:04.425Z,16.56
2023-05-20T03:20:04.611Z,16.54
2023-05-20T03:21:04.733Z,16.54
2023-05-20T03:22:04.914Z,16.53
2023-05-20T03:23:05.073Z,16.57
2023-05-20T03:24:05.275Z,16.54
2023-05-20T03:25:05.450Z,16.54
2023-05-20T03:26:05.602Z,16.57
2023-05-20T03:27:05.798Z,16.56
2023-05-20T03:28:05.957Z,16.59
2023-05-20T03:29:06.117Z,16.60
2023-05-20T03:30:06.306Z,16.56
2023-05-20T03:31:06.520Z,16.59
2023-05-20T03:32:08.598Z,16.62
2023-05-20T03:33:06.786Z,16.64
2023-05-20T03:34:06.962Z,16.62
2023-05-20T03:35:07.144Z,16.60
2023-05-20T03:36:07.317Z,16.62
2023-05-20T03:37:07.486Z,16.64
2023-05-20T03:38:07.655Z,16.60
2023-05-20T03:39:07.811Z,16.62
2023-05-20T03:40:08.045Z,16.65
2023-05-20T03:41:08.159Z,16.66
2023-05-20T03:42:08.344Z,16.66
2023-05-20T03:43:08.499Z,16.65
2023-05-20T03:44:08.670Z,16.68
2023-05-20T03:45:08.849Z,16.65
2023-05-20T03:46:09.037Z,16.66
2023-05-20T03:47:09.189Z,16.68
2023-05-20T03:48:09.341Z,16.68
2023-05-20T03:49:09.537Z,16.71
2023-05-20T03:50:09.726Z,16.72
2023-05-20T03:51:09.885Z,16.74
2023-05-20T03:52:10.069Z,16.74
2023-05-20T03:53:10.236Z,16.74
2023-05-20T03:54:10.402Z,16.76
2023-05-20T03:55:10.600Z,16.75
2023-05-20T03:56:10.761Z,16.78
2023-05-20T03:57:10.908Z,16.76
2023-05-20T03:58:11.087Z,16.78
2023-05-20T03:59:11.253Z,16.79
2023-05-20T04:00:11.421Z,16.79
2023-05-20T04:01:11.599Z,16.82
2023-05-20T04:02:11.816Z,16.79
2023-05-20T04:03:11.974Z,16.79
2023-05-20T04:04:12.169Z,16.76
2023-05-20T04:05:12.306Z,16.78
2023-05-20T04:06:12.475Z,16.82
2023-05-20T04:07:12.638Z,16.82
2023-05-20T04:08:12.827Z,16.84
2023-05-20T04:09:13.023Z,16.86
2023-05-20T04:10:13.147Z,16.86
2023-05-20T04:11:13.305Z,16.87
2023-05-20T04:12:13.482Z,16.86
2023-05-20T04:13:13.655Z,16.87
2023-05-20T04:14:13.823Z,16.87
2023-05-20T04:15:13.975Z,16.90
2023-05-20T04:16:14.166Z,16.91
2023-05-20T04:17:14.322Z,16.89
2023-05-20T04:18:14.557Z,16.91
2023-05-20T04:19:14.815Z,16.89
2023-05-20T04:20:14.895Z,16.91
2023-05-20T04:21:15.068Z,16.93
2023-05-20T04:22:15.232Z,16.93
2023-05-20T04:23:15.490Z,16.96
2023-05-20T04:24:15.554Z,16.96
2023-05-20T04:25:15.728Z,16.94
2023-05-20T04:26:15.888Z,16.97
2023-05-20T04:27:16.083Z,16.96
2023-05-20T04:28:16.246Z,16.97
2023-05-20T04:29:16.413Z,16.97
2023-05-20T04:30:16.591Z,16.97
2023-05-20T04:31:16.791Z,16.97
2023-05-20T04:32:16.977Z,17.01
2023-05-20T04:33:17.077Z,16.97
2023-05-20T04:34:17.256Z,16.96
2023-05-20T04:35:17.413Z,16.96
2023-05-20T04:36:17.609Z,17.02
2023-05-20T04:37:17.767Z,17.02
2023-05-20T04:38:17.938Z,17.06
2023-05-20T04:39:18.118Z,17.05
2023-05-20T04:40:18.279Z,17.06
2023-05-20T04:41:18.440Z,17.05
2023-05-20T04:42:18.617Z,17.07
2023-05-20T04:43:18.842Z,17.06
2023-05-20T04:44:18.949Z,17.09
2023-05-20T04:45:19.110Z,17.10
2023-05-20T04:46:19.294Z,17.12
2023-05-20T04:47:19.464Z,17.07
2023-05-20T04:48:19.640Z,17.12
2023-05-20T04:49:19.837Z,17.15
2023-05-20T04:50:19.966Z,17.10
2023-05-20T04:51:20.160Z,17.16
2023-05-20T04:52:20.353Z,17.16
2023-05-20T04:53:20.531Z,17.20
2023-05-20T04:54:20.715Z,17.16
2023-05-20T04:55:20.898Z,17.17
2023-05-20T04:56:21.072Z,17.23
2023-05-20T04:57:21.268Z,17.23
2023-05-20T04:58:21.401Z,17.25
2023-05-20T04:59:21.583Z,17.25
2023-05-20T05:00:21.771Z,17.28
2023-05-20T05:01:22.005Z,17.28
2023-05-20T05:02:22.132Z,17.27
2023-05-20T05:03:22.325Z,17.28
2023-05-20T05:04:22.541Z,17.28
2023-05-20T05:05:22.676Z,17.28
2023-05-20T05:06:22.888Z,17.30
2023-05-20T05:07:23.043Z,17.32
2023-05-20T05:08:23.236Z,17.34
2023-05-20T05:09:23.406Z,17.30
2023-05-20T05:10:23.575Z,17.32
2023-05-20T05:11:23.738Z,17.34
2023-05-20T05:12:23.920Z,17.31
2023-05-20T05:13:24.103Z,17.38
2023-05-20T05:14:24.289Z,17.34
2023-05-20T05:15:24.460Z,17.32
2023-05-20T05:16:24.681Z,17.38
2023-05-20T05:17:24.873Z,17.39
2023-05-20T05:18:24.965Z,17.39
2023-05-20T05:19:25.174Z,17.38
2023-05-20T05:20:25.345Z,17.40
2023-05-20T05:21:25.485Z,17.40
2023-05-20T05:22:25.694Z,17.40
2023-05-20T05:23:25.890Z,17.39
2023-05-20T05:24:25.995Z,17.42
2023-05-20T05:25:26.148Z,17.45
2023-05-20T05:26:26.309Z,17.46
2023-05-20T05:27:26.503Z,17.46
2023-05-20T05:28:26.674Z,17.45
2023-05-20T05:29:26.825Z,17.45
2023-05-20T05:30:27.030Z,17.50
2023-05-20T05:31:27.198Z,17.50
2023-05-20T05:32:27.437Z,17.49
2023-05-20T05:33:27.601Z,17.50
2023-05-20T05:34:27.695Z,17.53
2023-05-20T05:35:27.890Z,17.55
2023-05-20T05:36:28.097Z,17.53
2023-05-20T05:37:28.243Z,17.55
2023-05-20T05:38:28.415Z,17.55
2023-05-20T05:39:28.634Z,17.61
2023-05-20T05:40:28.812Z,17.60
2023-05-20T05:41:28.953Z,17.60
2023-05-20T05:42:29.277Z,17.61
2023-05-20T05:43:29.335Z,17.60
2023-05-20T05:44:29.516Z,17.61
2023-05-20T05:45:32.790Z,17.64
2023-05-20T05:46:29.829Z,17.65
2023-05-20T05:47:30.003Z,17.68
2023-05-20T05:48:30.139Z,17.70
2023-05-20T05:49:30.346Z,17.72
2023-05-20T05:50:30.526Z,17.67
2023-05-20T05:51:30.722Z,17.71
2023-05-20T05:52:30.872Z,17.71
2023-05-20T05:53:31.079Z,17.72
2023-05-20T05:54:31.262Z,17.76
2023-05-20T05:55:31.565Z,17.75
2023-05-20T05:56:31.592Z,17.76
2023-05-20T05:57:31.734Z,17.76
2023-05-20T05:58:31.908Z,17.79
2023-05-20T05:59:32.093Z,17.79
2023-05-20T06:00:32.234Z,17.82
2023-05-20T06:01:32.420Z,17.82
2023-05-20T06:02:32.677Z,17.82
2023-05-20T06:03:32.842Z,17.82
2023-05-20T06:04:33.047Z,17.86
2023-05-20T06:05:33.450Z,17.86
2023-05-20T06:06:33.246Z,17.87
2023-05-20T06:07:33.434Z,17.90
2023-05-20T06:08:33.598Z,17.92
2023-05-20T06:09:33.785Z,17.95
2023-05-20T06:10:33.947Z,17.92
2023-05-20T06:11:34.103Z,17.98
2023-05-20T06:12:34.289Z,17.98
2023-05-20T06:13:34.448Z,17.98
2023-05-20T06:14:34.641Z,18.04
2023-05-20T06:15:34.999Z,18.05
2023-05-20T06:16:35.012Z,18.05
2023-05-20T06:17:35.193Z,18.10
2023-05-20T06:18:35.319Z,18.07
2023-05-20T06:19:35.696Z,18.10
2023-05-20T06:20:35.689Z,18.13
2023-05-20T06:21:35.845Z,18.12
2023-05-20T06:22:36.002Z,18.15
2023-05-20T06:23:36.183Z,18.15
2023-05-20T06:24:36.366Z,18.17
2023-05-20T06:25:36.538Z,18.17
2023-05-20T06:26:36.645Z,18.19
2023-05-20T06:27:36.825Z,18.20
2023-05-20T06:28:36.978Z,18.20
2023-05-20T06:29:37.135Z,18.22
2023-05-20T06:30:37.340Z,18.22
2023-05-20T06:31:37.495Z,18.22
2023-05-20T06:32:37.663Z,18.27
2023-05-20T06:33:37.826Z,18.25
2023-05-20T06:34:37.989Z,18.30
2023-05-20T06:35:38.181Z,18.27
2023-05-20T06:36:38.373Z,18.26
2023-05-20T06:37:38.553Z,18.34
2023-05-20T06:38:38.699Z,18.35
2023-05-20T06:39:38.862Z,18.40
2023-05-20T06:40:39.041Z,18.40
2023-05-20T06:41:39.189Z,18.37
2023-05-20T06:42:39.372Z,18.42
2023-05-20T06:43:39.542Z,18.44
2023-05-20T06:44:39.700Z,18.42
2023-05-20T06:45:39.868Z,18.44
2023-05-20T06:46:40.111Z,18.50
2023-05-20T06:47:40.253Z,18.48
2023-05-20T06:48:40.357Z,18.46
2023-05-20T06:49:40.536Z,18.53
2023-05-20T06:50:40.704Z,18.53
2023-05-20T06:51:40.872Z,18.51
2023-05-20T06:52:41.038Z,18.56
2023-05-20T06:53:41.212Z,18.56
2023-05-20T06:54:41.417Z,18.58
2023-05-20T06:55:41.566Z,18.57
2023-05-20T06:56:41.734Z,18.60
2023-05-20T06:57:41.899Z,18.61
2023-05-20T06:58:42.069Z,18.60
2023-05-20T06:59:42.252Z,18.63
2023-05-20T07:00:42.406Z,18.58
2023-05-20T07:01:42.649Z,18.64
2023-05-20T07:02:42.735Z,18.63
2023-05-20T07:03:43.008Z,18.66
2023-05-20T07:04:43.052Z,18.66
2023-05-20T07:05:43.229Z,18.69
2023-05-20T07:06:43.414Z,18.69
2023-05-20T07:07:43.578Z,18.72
2023-05-20T07:08:43.773Z,18.69
2023-05-20T07:09:43.912Z,18.69
2023-05-20T07:10:44.114Z,18.72
2023-05-20T07:11:44.277Z,18.76
2023-05-20T07:12:44.455Z,18.78
2023-05-20T07:13:44.612Z,18.79
2023-05-20T07:14:44.774Z,18.81
2023-05-20T07:15:44.958Z,18.81
2023-05-20T07:16:45.121Z,18.79
2023-05-20T07:17:45.352Z,18.87
2023-05-20T07:18:45.505Z,18.88
2023-05-20T07:19:45.626Z,18.85
2023-05-20T07:20:45.813Z,18.90
2023-05-20T07:21:46.011Z,18.94
2023-05-20T07:22:46.128Z,18.93
2023-05-20T07:23:46.308Z,18.91
2023-05-20T07:24:46.494Z,18.98
2023-05-20T07:25:46.648Z,18.96
2023-05-20T07:26:46.863Z,19.03
2023-05-20T07:27:46.983Z,19.05
2023-05-20T07:28:47.164Z,19.12
2023-05-20T07:29:47.375Z,19.12
2023-05-20T07:30:47.503Z,19.19
2023-05-20T07:31:47.718Z,19.24
2023-05-20T07:32:47.892Z,19.26
2023-05-20T07:33:48.007Z,19.33
2023-05-20T07:34:48.176Z,19.36
2023-05-20T07:35:48.353Z,19.38
2023-05-20T07:36:48.533Z,19.45
2023-05-20T07:37:48.690Z,19.46
2023-05-20T07:38:57.125Z,19.53
2023-05-20T07:39:50.051Z,19.58
2023-05-20T07:40:49.214Z,19.66
2023-05-20T07:41:49.351Z,19.67
2023-05-20T07:42:49.523Z,19.71
2023-05-20T07:43:49.680Z,19.75
2023-05-20T07:44:49.845Z,19.85
2023-05-20T07:45:50.071Z,19.90
2023-05-20T07:46:50.235Z,19.93
2023-05-20T07:47:50.432Z,20.02
2023-05-20T07:48:50.584Z,20.04
2023-05-20T07:49:50.751Z,20.09
2023-05-20T07:50:50.925Z,20.12
2023-05-20T07:51:51.129Z,20.19
2023-05-20T07:52:56.635Z,20.24
2023-05-20T07:53:52.454Z,20.27
2023-05-20T07:54:51.645Z,20.33
2023-05-20T07:55:51.757Z,20.36
2023-05-20T07:56:51.935Z,20.44
2023-05-20T07:57:52.106Z,20.46
2023-05-20T07:58:52.276Z,20.49
2023-05-20T07:59:52.481Z,20.54
2023-05-20T08:00:52.630Z,20.57
2023-05-20T08:01:52.839Z,20.61
2023-05-20T08:02:53.276Z,20.69
2023-05-20T08:03:53.331Z,20.72
2023-05-20T08:04:53.391Z,20.76
2023-05-20T08:05:53.534Z,20.84
2023-05-20T08:06:53.703Z,20.88
2023-05-20T08:07:53.877Z,20.89
2023-05-20T08:08:54.066Z,20.96
2023-05-20T08:09:54.223Z,20.99
2023-05-20T08:10:54.374Z,21.01
2023-05-20T08:11:54.532Z,21.06
2023-05-20T08:12:54.715Z,21.07
2023-05-20T08:13:54.856Z,21.12
2023-05-20T08:14:55.061Z,21.16
2023-05-20T08:15:55.194Z,21.18
2023-05-20T08:16:55.459Z,21.21
2023-05-20T08:17:55.609Z,21.22
2023-05-20T08:18:55.760Z,21.25
2023-05-20T08:19:55.881Z,21.35
2023-05-20T08:20:56.053Z,21.38
2023-05-20T08:21:56.223Z,21.45
2023-05-20T08:22:56.408Z,21.50
2023-05-20T08:23:56.557Z,21.53
2023-05-20T08:24:56.752Z,21.57
2023-05-20T08:25:56.929Z,21.63
2023-05-20T08:26:57.095Z,21.69
2023-05-20T08:27:57.278Z,21.72
2023-05-20T08:28:57.450Z,21.81
2023-05-20T08:30:00.524Z,21.81
2023-05-20T08:30:57.790Z,21.90
2023-05-20T08:31:57.963Z,21.97
2023-05-20T08:32:58.133Z,22.06
2023-05-20T08:33:58.312Z,22.09
2023-05-20T08:34:58.485Z,22.11
2023-05-20T08:35:58.678Z,22.18
2023-05-20T08:36:58.836Z,22.21
2023-05-20T08:37:59.003Z,22.29
2023-05-20T08:38:59.161Z,22.31
2023-05-20T08:39:59.353Z,22.33
2023-05-20T08:41:00.417Z,22.37
2023-05-20T08:41:59.702Z,22.44
2023-05-20T08:42:59.860Z,22.44
2023-05-20T08:44:00.031Z,22.49
2023-05-20T08:45:00.211Z,22.55
2023-05-20T08:46:00.420Z,22.59
2023-05-20T08:47:00.592Z,22.61
2023-05-20T08:48:00.794Z,22.59
2023-05-20T08:49:00.922Z,22.60
2023-05-20T08:50:01.090Z,22.66
2023-05-20T08:51:01.279Z,22.66
2023-05-20T08:52:01.438Z,22.67
2023-05-20T08:53:01.648Z,22.70
2023-05-20T08:54:01.755Z,22.74
2023-05-20T08:55:01.927Z,22.79
2023-05-20T08:56:02.102Z,22.82
2023-05-20T08:57:02.267Z,22.83
2023-05-20T08:58:02.428Z,22.83
2023-05-20T08:59:02.610Z,22.89
2023-05-20T09:00:02.802Z,22.87
2023-05-20T09:01:02.978Z,22.90
2023-05-20T09:02:03.207Z,22.89
2023-05-20T09:03:03.323Z,22.86
2023-05-20T09:04:03.479Z,22.90
2023-05-20T09:05:03.679Z,22.89
2023-05-20T09:06:03.846Z,22.90
2023-05-20T09:07:03.993Z,22.86
2023-05-20T09:08:05.321Z,22.86
2023-05-20T09:09:04.320Z,22.83
2023-05-20T09:10:04.511Z,22.83
2023-05-20T09:11:04.662Z,22.86
2023-05-20T09:12:04.840Z,22.82
2023-05-20T09:13:05.043Z,22.86
2023-05-20T09:14:05.172Z,22.82
2023-05-20T09:15:05.374Z,22.82
2023-05-20T09:16:05.567Z,22.83
2023-05-20T09:17:05.698Z,22.84
2023-05-20T09:18:05.887Z,22.82
2023-05-20T09:19:06.046Z,22.82
2023-05-20T09:20:06.195Z,22.83
2023-05-20T09:21:06.387Z,22.82
2023-05-20T09:22:06.569Z,22.86
2023-05-20T09:23:06.756Z,22.84
2023-05-20T09:24:06.953Z,22.83
2023-05-20T09:25:07.096Z,22.83
2023-05-20T09:26:07.267Z,22.86
2023-05-20T09:27:07.430Z,22.82
2023-05-20T09:28:07.647Z,22.84
2023-05-20T09:29:07.776Z,22.83
2023-05-20T09:30:07.958Z,22.87
2023-05-20T09:31:08.126Z,22.86
2023-05-20T09:32:08.345Z,22.87
2023-05-20T09:33:08.465Z,22.86
2023-05-20T09:34:08.663Z,22.87
2023-05-20T09:35:08.782Z,22.87
2023-05-20T09:36:08.953Z,22.87
2023-05-20T09:37:09.139Z,22.89
2023-05-20T09:38:09.317Z,22.92
2023-05-20T09:39:09.476Z,22.93
2023-05-20T09:40:09.651Z,22.94
2023-05-20T09:41:09.808Z,22.99
2023-05-20T09:42:09.985Z,23.02
2023-05-20T09:43:10.171Z,23.08
2023-05-20T09:44:10.341Z,23.09
2023-05-20T09:45:10.525Z,23.12
2023-05-20T09:46:10.729Z,23.14
2023-05-20T09:47:10.856Z,23.19
2023-05-20T09:48:11.128Z,23.20
2023-05-20T09:49:11.219Z,23.26
2023-05-20T09:50:11.397Z,23.30
2023-05-20T09:51:11.558Z,23.35
2023-05-20T09:52:11.739Z,23.38
2023-05-20T09:53:11.913Z,23.39
2023-05-20T09:54:12.087Z,23.42
2023-05-20T09:55:12.259Z,23.42
2023-05-20T09:56:12.416Z,23.42
2023-05-20T09:57:12.604Z,23.48
2023-05-20T09:58:14.805Z,23.56
2023-05-20T09:59:12.975Z,23.60
2023-05-20T10:00:13.125Z,23.61
2023-05-20T10:01:13.415Z,23.66
2023-05-20T10:02:13.551Z,23.74
2023-05-20T10:03:13.703Z,23.76
2023-05-20T10:04:13.812Z,23.82
2023-05-20T10:05:14.021Z,23.83
2023-05-20T10:06:14.170Z,23.90
2023-05-20T10:07:14.357Z,23.90
2023-05-20T10:08:14.524Z,23.96
2023-05-20T10:09:14.666Z,23.96
2023-05-20T10:10:14.843Z,24.00
2023-05-20T10:11:14.996Z,24.03
2023-05-20T10:12:15.185Z,24.03
2023-05-20T10:13:15.329Z,24.08
2023-05-20T10:14:15.484Z,24.09
2023-05-20T10:15:15.686Z,24.17
2023-05-20T10:16:15.859Z,24.16
2023-05-20T10:17:16.014Z,24.21
2023-05-20T10:18:16.205Z,24.23
2023-05-20T10:19:16.393Z,24.27
2023-05-20T10:20:16.538Z,24.28
2023-05-20T10:21:16.705Z,24.31
2023-05-20T10:22:16.905Z,24.29
2023-05-20T10:23:17.086Z,24.29
2023-05-20T10:24:17.252Z,24.29
2023-05-20T10:25:17.395Z,24.32
2023-05-20T10:26:17.625Z,24.32
2023-05-20T10:27:17.803Z,24.29
2023-05-20T10:28:17.966Z,24.34
2023-05-20T10:29:18.151Z,24.31
2023-05-20T10:30:18.301Z,24.31
2023-05-20T10:31:18.483Z,24.31
2023-05-20T10:32:18.652Z,24.29
2023-05-20T10:33:18.802Z,24.28
2023-05-20T10:34:19.021Z,24.29
2023-05-20T10:35:19.143Z,24.29
2023-05-20T10:36:19.332Z,24.34
2023-05-20T10:37:19.499Z,24.34
2023-05-20T10:38:19.684Z,24.36
2023-05-20T10:39:19.812Z,24.38
2023-05-20T10:40:20.013Z,24.41
2023-05-20T10:41:20.168Z,24.42
2023-05-20T10:42:20.366Z,24.46
2023-05-20T10:43:21.250Z,24.50
2023-05-20T10:44:20.696Z,24.54
2023-05-20T10:45:20.844Z,24.56
2023-05-20T10:46:32.599Z,24.61
2023-05-20T10:47:26.013Z,24.66
2023-05-20T10:48:21.459Z,24.72
2023-05-20T10:49:24.423Z,24.78
2023-05-20T10:50:22.718Z,24.88
2023-05-20T10:51:21.869Z,24.87
2023-05-20T10:52:22.055Z,24.97
2023-05-20T10:53:32.796Z,25.01
2023-05-20T10:54:23.379Z,25.06
2023-05-20T10:55:22.554Z,25.13
2023-05-20T10:56:22.731Z,25.18
2023-05-20T10:57:22.876Z,25.23
2023-05-20T10:58:23.076Z,25.31
2023-05-20T10:59:23.229Z,25.31
2023-05-20T11:00:23.382Z,25.42
2023-05-20T11:01:23.608Z,25.50
2023-05-20T11:02:23.782Z,25.53
2023-05-20T11:03:24.111Z,25.61
2023-05-20T11:04:24.107Z,25.61
2023-05-20T11:05:24.252Z,25.65
2023-05-20T11:06:24.437Z,25.65
2023-05-20T11:07:24.587Z,25.68
2023-05-20T11:08:29.238Z,25.72
2023-05-20T11:09:24.955Z,25.76
2023-05-20T11:10:25.086Z,25.78
2023-05-20T11:11:25.291Z,25.80
2023-05-20T11:12:25.444Z,25.83
2023-05-20T11:13:26.145Z,25.84
2023-05-20T11:14:25.811Z,25.87
2023-05-20T11:15:25.995Z,25.87
2023-05-20T11:16:26.239Z,25.84
2023-05-20T11:17:26.406Z,25.90
2023-05-20T11:18:26.530Z,25.99
2023-05-20T11:19:26.780Z,26.08
2023-05-20T11:20:26.887Z,26.13
2023-05-20T11:21:27.021Z,26.23
2023-05-20T11:22:27.204Z,26.25
2023-05-20T11:23:27.362Z,26.24
2023-05-20T11:24:27.557Z,26.23
2023-05-20T11:25:27.687Z,26.25
2023-05-20T11:26:27.855Z,26.32
2023-05-20T11:27:28.007Z,26.45
2023-05-20T11:28:28.195Z,26.51
2023-05-20T11:29:28.402Z,26.51
2023-05-20T11:30:28.550Z,26.55
2023-05-20T11:31:28.721Z,26.54
2023-05-20T11:32:29.103Z,26.54
2023-05-20T11:33:29.083Z,26.55
2023-05-20T11:34:30.047Z,26.54
2023-05-20T11:35:29.425Z,26.55
2023-05-20T11:36:29.593Z,26.55
2023-05-20T11:37:29.851Z,26.58
2023-05-20T11:38:29.906Z,26.67
2023-05-20T11:39:30.111Z,26.77
2023-05-20T11:40:35.860Z,26.89
2023-05-20T11:41:32.368Z,26.94
2023-05-20T11:42:30.960Z,27.07
2023-05-20T11:43:30.713Z,27.20
2023-05-20T11:44:30.884Z,27.33
2023-05-20T11:45:32.017Z,27.41
2023-05-20T11:46:32.225Z,27.41
2023-05-20T11:47:31.605Z,27.39
2023-05-20T11:48:31.567Z,27.41
2023-05-20T11:49:31.756Z,27.44
2023-05-20T11:50:32.006Z,27.47
2023-05-20T11:51:32.104Z,27.47
2023-05-20T11:52:32.251Z,27.52
2023-05-20T11:53:32.453Z,27.49
2023-05-20T11:54:32.618Z,27.54
2023-05-20T11:55:32.760Z,27.54
2023-05-20T11:56:32.963Z,27.54
2023-05-20T11:57:33.120Z,27.54
2023-05-20T11:58:34.256Z,27.54
2023-05-20T11:59:33.446Z,27.51
2023-05-20T12:00:43.000Z,27.49
2023-05-20T12:01:34.792Z,27.52
2023-05-20T12:02:34.043Z,27.64
2023-05-20T12:03:34.354Z,27.70
2023-05-20T12:04:34.310Z,27.78
2023-05-20T12:05:34.445Z,27.88
2023-05-20T12:06:34.663Z,27.99
2023-05-20T12:07:34.814Z,28.04
2023-05-20T12:08:34.980Z,28.10
2023-05-20T12:09:35.136Z,28.08
2023-05-20T12:10:35.496Z,28.10
2023-05-20T12:11:35.494Z,28.15
2023-05-20T12:12:35.677Z,28.26
2023-05-20T12:13:35.950Z,28.36
2023-05-20T12:14:36.025Z,28.38
2023-05-20T12:15:36.151Z,28.40
2023-05-20T12:16:36.555Z,28.44
2023-05-20T12:17:36.564Z,28.44
2023-05-20T12:18:36.714Z,28.49
2023-05-20T12:19:38.309Z,28.57
2023-05-20T12:20:37.498Z,28.57
2023-05-20T12:21:37.242Z,28.66
2023-05-20T12:22:37.395Z,28.73
2023-05-20T12:23:37.583Z,28.79
2023-05-20T12:24:37.721Z,28.83
2023-05-20T12:25:37.883Z,28.85
2023-05-20T12:26:38.107Z,28.86
2023-05-20T12:27:38.236Z,28.94
2023-05-20T12:28:38.408Z,28.97
2023-05-20T12:29:38.576Z,29.10
2023-05-20T12:30:38.747Z,29.19
2023-05-20T12:31:39.024Z,29.27
2023-05-20T12:32:39.133Z,29.38
2023-05-20T12:33:39.290Z,29.45
2023-05-20T12:34:39.452Z,29.56
2023-05-20T12:35:39.618Z,29.67
2023-05-20T12:36:39.787Z,29.79
2023-05-20T12:37:39.944Z,29.91
2023-05-20T12:38:40.113Z,29.90
2023-05-20T12:39:40.284Z,29.92
2023-05-20T12:40:40.509Z,29.97
2023-05-20T12:41:40.673Z,29.98
2023-05-20T12:42:40.816Z,30.07
2023-05-20T12:43:40.978Z,30.16
2023-05-20T12:44:41.164Z,30.24
2023-05-20T12:45:41.336Z,30.29
2023-05-20T12:46:41.536Z,30.39
2023-05-20T12:47:41.683Z,30.50
2023-05-20T12:48:42.704Z,30.59
2023-05-20T12:49:42.027Z,30.65
2023-05-20T12:50:42.158Z,30.77
2023-05-20T12:51:42.334Z,30.87
2023-05-20T12:52:42.495Z,30.98
2023-05-20T12:53:42.659Z,31.09
2023-05-20T12:54:42.814Z,31.18